Flight Track Log - Related Links

Times and Time Zones

All times are in EST time to prevent confusion due to time zone crossing. See the BOE2 flight status page for this flight to view local times or setup timezone preferences in your user account.

Time Position Orientation Groundspeed Altitude Reporting Facility
EST Latitude Longitude Course Direction KTS MPH feet Rate Location/Type
Mon 07:38:02 PM 47.2494 -119.3490 339° North 161 185 3,200  Level Seattle Center
Mon 07:39:13 PM 47.3183 -119.3880 344° North 207 238 6,300 2,794 Climbing Seattle Center
Mon 07:40:13 PM 47.3872 -119.4180 21° North 238 274 9,300 1,850 Climbing Seattle Center
Mon 07:41:13 PM 47.4578 -119.3780 24° Northeast 249 287 10,000 347 Climbing Seattle Center
Mon 07:42:14 PM 47.5283 -119.3310 26° Northeast 254 292 10,000 446 Level Seattle Center
Mon 07:43:14 PM 47.5947 -119.2840 23° Northeast 265 305 10,900 504 Climbing Seattle Center
Mon 07:44:13 PM 47.6631 -119.2410 59° Northeast 270 311 11,000 50 Climbing Seattle Center
Mon 07:45:13 PM 47.7022 -119.1450 94° East 256 295 11,000  Level Seattle Center
Mon 07:46:13 PM 47.6975 -119.0340 100° East 239 275 11,000  Level Seattle Center
Mon 07:47:13 PM 47.6842 -118.9260 51° Northeast 245 282 11,000  Level Seattle Center
Mon 07:48:13 PM 47.7192 -118.8610 10° North 211 243 11,000  Level Seattle Center
Mon 07:49:13 PM 47.7689 -118.8480 15° North 163 188 11,000  Level Seattle Center
Mon 07:50:13 PM 47.8186 -118.8280 12° North 169 194 11,000  Level Seattle Center
Mon 07:51:13 PM 47.8683 -118.8120 12° North 174 200 11,000  Level Seattle Center
Mon 07:52:14 PM 47.9203 -118.7960 15° North 179 206 11,000  Level Seattle Center
Mon 07:53:13 PM 47.9700 -118.7760 12° North 179 206 11,000  Level Seattle Center
Mon 07:54:13 PM 48.0197 -118.7600 13° North 179 206 11,000  Level Seattle Center
Mon 07:55:13 PM 48.0675 -118.7430 293° West 179 206 11,000  Level Seattle Center
Mon 07:56:13 PM 48.0825 -118.7960 247° West 111 128 11,000  Level Seattle Center
Mon 07:57:13 PM 48.0622 -118.8680 251° West 121 139 11,000  Level Seattle Center
Mon 07:58:13 PM 48.0461 -118.9360 251° West 155 178 11,000  Level Seattle Center
Mon 07:59:13 PM 48.0300 -119.0070 248° West 178 205 11,000  Level Seattle Center
Mon 08:00:13 PM 48.0117 -119.0760 250° West 183 211 11,000  Level Seattle Center
Mon 08:01:13 PM 47.9933 -119.1510 251° West 183 211 11,000  Level Seattle Center
Mon 08:02:13 PM 47.9772 -119.2220 248° West 188 216 11,000  Level Seattle Center
Mon 08:03:13 PM 47.9589 -119.2900 249° West 188 216 11,000  Level Seattle Center
Mon 08:04:13 PM 47.9403 -119.3620 252° West 188 216 11,000  Level Seattle Center
Mon 08:05:13 PM 47.9239 -119.4360 250° West 188 216 11,000  Level Seattle Center
Mon 08:06:13 PM 47.9053 -119.5110 267° West 188 216 11,000 650 Level Seattle Center
Mon 08:07:13 PM 47.9014 -119.6160 267° West 218 251 12,300 1,983 Climbing Seattle Center
Mon 08:08:14 PM 47.8975 -119.7330 267° West 256 295 15,000 1,835 Climbing Seattle Center
Mon 08:09:14 PM 47.8933 -119.8540 268° West 284 327 16,000 504 Climbing Seattle Center
Mon 08:10:13 PM 47.8911 -119.9740 267° West 295 339 16,000  Level Seattle Center
Mon 08:11:13 PM 47.8867 -120.0980 268° West 295 339 16,000  Level Seattle Center
Mon 08:12:14 PM 47.8842 -120.2190 268° West 295 339 16,000  Level Seattle Center
Mon 08:13:13 PM 47.8817 -120.3390 269° West 295 339 16,000  Level Seattle Center
Mon 08:14:14 PM 47.8808 -120.4630 268° West 295 339 16,000  Level Seattle Center
Mon 08:15:13 PM 47.8781 -120.5830 265° West 290 334 16,000  Level Seattle Center
Mon 08:16:13 PM 47.8708 -120.7070 268° West 290 334 16,000  Level Seattle Center
Mon 08:17:13 PM 47.8678 -120.8300 268° West 290 334 16,000  Level Seattle Center
Mon 08:18:13 PM 47.8647 -120.9510 266° West 295 339 16,000 -300 Level Seattle Center
Mon 08:19:13 PM 47.8592 -121.0740 268° West 295 339 15,400 -992 Descending Seattle Center
Mon 08:20:14 PM 47.8558 -121.1950 275° West 295 339 14,000 300 Descending Seattle Center
Mon 08:21:13 PM 47.8628 -121.3090 276° West 295 339 16,000 -1,311 Climbing Seattle Center
Mon 08:22:13 PM 47.8714 -121.4300 275° West 295 339 11,400 -2,479 Descending Seattle Center
Mon 08:23:14 PM 47.8781 -121.5420 272° West 295 339 11,000 -304 Descending Seattle Center
Mon 08:23:32 PM 47.8794 -121.5910 278° West 278 320 11,000  Level Seattle Center
Mon 08:23:50 PM 47.8831 -121.6280 275° West 277 319 11,000  Level Seattle Center
Mon 08:24:13 PM 47.8847 -121.6560 253° West 290 334 11,000 -98 Level Seattle Center
Mon 08:24:51 PM 47.8689 -121.7330 220° Southwest 282 325 10,900 -400 Descending Seattle Center
Mon 08:25:13 PM 47.8519 -121.7540 222° Southwest 262 302 10,600 -1,200 Descending Seattle Center
Mon 08:25:51 PM 47.8094 -121.8110 224° Southwest 277 319 9,700 -1,400 Descending Seattle Center
Mon 08:26:13 PM 47.7967 -121.8290 222° Southwest 261 300 9,200 -2,459 Descending Seattle Center
Mon 08:26:52 PM 47.7519 -121.8890 217° Southwest 265 305 7,200 -2,400 Descending Seattle Center
Mon 08:27:13 PM 47.7411 -121.9010 225° Southwest 266 306 6,800 -2,262 Descending Seattle Center
Mon 08:27:53 PM 47.6983 -121.9640 210° Southwest 260 299 4,900 -2,300 Descending Seattle Center
Mon 08:28:13 PM 47.6878 -121.9730 245° Southwest 266 306 4,500 -1,377 Descending Seattle Center
Mon 08:28:54 PM 47.6658 -122.0430 277° West 254 292 3,500 -1,200 Descending Seattle Center
Mon 08:29:13 PM 47.6675 -122.0640 291° West 254 292 3,300 -492 Descending Seattle Center
Mon 08:29:55 PM 47.6867 -122.1390 287° West 248 285 3,000 -300 Descending Seattle Center
Mon 08:30:13 PM 47.6906 -122.1580 286° West 225 259 3,000 -689 Level Seattle Center
Mon 08:30:56 PM 47.7056 -122.2360 292° West 238 274 2,300 -800 Descending Seattle Center
Mon 08:31:13 PM 47.7133 -122.2640 284° West 232 267 2,200 -98 Descending Seattle Center
Mon 08:31:57 PM 47.7244 -122.3320 295° West 232 267 2,200  Level Seattle Center
Mon 08:32:13 PM 47.7303 -122.3510 271° West 232 267 2,200  Level Seattle Center
Mon 08:32:57 PM 47.7308 -122.4190 231° Southwest 227 261 2,200 98 Level Seattle Center
Mon 08:33:14 PM 47.7242 -122.4310 193° South 197 227 2,300 -90 Climbing Seattle Center
Mon 08:34:04 PM 47.6781 -122.4470 165° South 198 228 2,100 -270 Descending Seattle Center
Mon 08:35:05 PM 47.6267 -122.4260 126° Southeast 195 224 1,800 -362 Descending Seattle Center
Mon 08:36:00 PM 47.5986 -122.3690 145° Southeast 188 216 1,400 -639 Descending Seattle Center
Mon 08:37:07 PM 47.5581 -122.3270 146° Southeast 170 196 500 6,586 Descending Seattle Center
Mon 08:38:13 PM 47.5153 -122.2850 148° Southeast 171 197 16,000 7,323 Climbing Seattle Center
Mon 08:39:14 PM 47.4744 -122.2470 145° Southeast 171 197 16,000  Level Seattle Center
Mon 08:40:14 PM 47.4336 -122.2050 147° Southeast 171 197 16,000  Level Seattle Center
Mon 08:41:13 PM 47.3928 -122.1660 145° Southeast 171 197 16,000  Level Seattle Center
Mon 08:42:14 PM 47.3683 -122.1410 145° Southeast 171 197 16,000  Level Seattle Center

Login

Don't have an account? Register now (free) for customized features, flight alerts, and more!